Oakesdale, WA

8:46 PM PDT on June 02, 2015 (GMT -0700)
Spokane International | | Change Station
CLOSE
Current Station
Airport
Location: Spokane,
Elevation: 2365 ft
Nearby Weather Stations

Elev 2365 ft 47.62 °N, 117.53 °W | Updated 53 minutes ago

Partly Cloudy
Partly Cloudy
64 °F
Feels Like 64 °F
N
7
Wind Variable Wind from SSW

Today
High -- | Low -- °F
--% Chance of Precip.
Yesterday
High -- | Low -- °F
Precip. -- in
4:56 AM 8:37 PM
Full, 100% visible
Pressure 29.91 in
Visibility 10.0 miles
Clouds Mostly Cloudy 9000 ft
Mostly Cloudy 20000 ft
Dew Point 42 °F
Humidity 45%
Rainfall 0.00 in
Snow Depth Not available.
UV 0 out of 12
Pollen 2.50 out of 12
Air Quality Not available.
Flu Activity Sporadic
METAR KGEG 030253Z 20006KT 10SM BKN090 BKN200 18/06 A2993 RMK AO2 SLP127 SHRA DSNT NW T01780056 52003

More Conditions Fewer Conditions

Pressure 29.91 in
Visibility 10.0 miles
Clouds Mostly Cloudy 9000 ft
Mostly Cloudy 20000 ft
Dew Point 42 °F
Humidity 45%
Rainfall 0.00 in
Snow Depth Not available.
UV 0 out of 12
Pollen 2.50 out of 12
Air Quality Not available.
Flu Activity Sporadic
METAR KGEG 030253Z 20006KT 10SM BKN090 BKN200 18/06 A2993 RMK AO2 SLP127 SHRA DSNT NW T01780056 52003

More Conditions Fewer Conditions

10-Day Weather Forecast

×

Almanac

Astronomy

Jun. 02, 2015 Rise Set
Actual Time
Civil Twilight
Nautical Twilight
Astronomical Twilight
Moon
Length of Visible Light
Length of Day
Tomorrow will be .
, % of the Moon is Illuminated

Today's Extremes

State Highs State Lows

Community

WunderPhotos

Upload Photos

1,826,138 photos uploaded!

WunderBlogs® & News

Nearby

Air Quality

  Air Quality AQ Index Pollutant
Not available.

Snow Depth

Station Depth Elevation

Earthquake Activity

City Distance Mag. Time & Date
Minimum magnitude displayed is 2.5.

Coastal Water Temperatures

Place Temperature

Stations

Nearby Weather Stations

Station Location Temp. Windchill Dew Point Humidity Wind Precip. Elev Updated Type